Allamuchy, NJ

10:07 AM EST on March 06, 2015 (GMT -0500)
Panther Valley - Bowers Glen Upper | Change Station
CLOSE
Current Station
Personal Weather Station
Location: Allamuchy, NJ
Elevation: 925 ft
Nearby Weather Stations

Elev 925 ft 40.90 °N, 74.85 °W | Updated 18 seconds ago

Clear
Clear
14.1 °F
Feels Like 14 °F
N
0.0
Wind Variable Wind from SSW
Gusts 0.0 mph

Today
High -- | Low -- °F
--% Chance of Precip.
Yesterday
High -- | Low -- °F
Precip. -- in
6:26 AM 5:55 PM
Full, 99% visible
Pressure 30.56 in
Visibility 10.0 miles
Clouds Clear
Windchill 14 °F
Dew Point 5 °F
Humidity 66%
Rainfall in
Snow Depth Not available.
UV 4 out of 12
Pollen .60 out of 12
Air Quality Not available.
Flu Activity Not available.
METAR KSMQ 061453Z AUTO VRB05KT 10SM CLR M08/M16 A3055 RMK AO2 SLP348 T10781161 50008 TSNO

More Conditions Fewer Conditions

Pressure 30.56 in
Visibility 10.0 miles
Clouds Clear
Windchill 14 °F
Dew Point 5 °F
Humidity 66%
Rainfall in
Snow Depth Not available.
UV 4 out of 12
Pollen .60 out of 12
Air Quality Not available.
Flu Activity Not available.
METAR KSMQ 061453Z AUTO VRB05KT 10SM CLR M08/M16 A3055 RMK AO2 SLP348 T10781161 50008 TSNO

More Conditions Fewer Conditions

10-Day Weather Forecast

Almanac

Astronomy

Mar. 06, 2015 Rise Set
Actual Time
Civil Twilight
Nautical Twilight
Astronomical Twilight
Moon
Length of Visible Light
Length of Day
Tomorrow will be .
, % of the Moon is Illuminated

Today's Extremes

State Highs State Lows

Community

WunderPhotos

Upload Photos

1,803,296 photos uploaded!

WunderBlogs® & News

Nearby

Air Quality

  Air Quality AQ Index Pollutant
Not available.

Snow Depth

Station Depth Elevation

Earthquake Activity

City Distance Mag. Time & Date
Minimum magnitude displayed is 2.5.

Coastal Water Temperatures

Place Temperature

Nearby Weather Stations